Second Mesa, Arizona
Current Conditions -  °F | °C
As of 5:56 AM on Sunday 21 Dec 2014 (Local Time) from KINW Reporting Station
Haze Haze  
Wind Chill: 19°   Ceiling: 200
Heat Index: 27°   Visibility: 1.2mi
Dew Point: 25°   Wind: 8mph
Humidity: 92%   Direction: 170°S
Pressure: 30.1"   Gusts: NA
Location:  35.82°N, 110.5°W
Report Text: KINW 211256Z AUTO 17007KT 1 1/4SM BR OVC002 M03/M04 A3010 RMK AO2 PRESFR SLP206 I1001 T10281039
Loading
Personal Weather Stations






























Interactive Weather Map New forecast layout! Learn more

10-Day Weather Forecast

Advertisements
Track Severe Weather on mobile